Flight Track Log - Related Links

Times and Time Zones

All times are in EDT time to prevent confusion due to time zone crossing. See the N1250V flight status page for this flight to view local times or setup timezone preferences in your user account.

Time Position Orientation Groundspeed Altitude Reporting Facility
EDT Latitude Longitude Course Direction KTS MPH feet Rate Location/Type
Fri 04:39:46 PM 39.5333 -104.7833 90° East 178 205 8,400  Level Denver TRACON
Fri 04:41:04 PM 39.5286 -104.7214 96° East 185 213 10,700 1,543 Climbing Denver Center
Fri 04:42:06 PM 39.5483 -104.6219 76° East 224 258 12,000 1,680 Climbing Denver Center
Fri 04:43:09 PM 39.5700 -104.5344 72° East 244 281 14,200 1,790 Climbing Denver Center
Fri 04:44:10 PM 39.5850 -104.4642 74° East 241 277 15,700 1,355 Climbing Denver Center
Fri 04:45:13 PM 39.6089 -104.3536 74° East 262 302 17,000 624 Climbing Denver Center
Fri 04:46:15 PM 39.6325 -104.2467 74° East 307 353 17,000  Level Denver Center
Fri 04:47:17 PM 39.6608 -104.1189 74° East 344 396 17,000 387 Level Denver Center
Fri 04:48:19 PM 39.6550 -103.9986 94° East 340 391 17,800 1,403 Climbing Denver Center
Fri 04:49:21 PM 39.6350 -103.8875 103° East 295 339 19,900 1,839 Climbing Denver Center
Fri 04:50:23 PM 39.6236 -103.7906 99° East 275 316 21,600 1,452 Climbing Denver Center
Fri 04:51:25 PM 39.6117 -103.6975 99° East 263 303 22,900 1,016 Climbing Denver Center
Fri 04:52:27 PM 39.6072 -103.5914 93° East 296 341 23,700 871 Climbing Denver Center
Fri 04:53:29 PM 39.6103 -103.4589 88° East 308 354 24,700 919 Climbing Denver Center
Fri 04:54:31 PM 39.6122 -103.3439 89° East 317 365 25,600 871 Climbing Denver Center
Fri 04:55:33 PM 39.6147 -103.2283 88° East 321 369 26,500 871 Climbing Denver Center
Fri 04:56:35 PM 39.6172 -103.1122 88° East 322 371 27,400 864 Climbing Denver Center
Fri 04:57:38 PM 39.6189 -102.9964 89° East 324 373 28,300 768 Climbing Denver Center
Fri 04:58:40 PM 39.6208 -102.8800 89° East 325 374 29,000 629 Climbing Denver Center
Fri 04:59:42 PM 39.6231 -102.7344 89° East 337 388 29,600 532 Climbing Denver Center
Fri 05:00:44 PM 39.6239 -102.6081 89° East 343 395 30,100 484 Climbing Denver Center
Fri 05:01:46 PM 39.6253 -102.4881 89° East 346 398 30,600 629 Climbing Denver Center
Fri 05:02:48 PM 39.6275 -102.3483 89° East 347 399 31,400 677 Climbing Denver Center
Fri 05:03:50 PM 39.6286 -102.2322 89° East 339 390 32,000 629 Climbing Denver Center
Fri 05:04:52 PM 39.6289 -102.1356 90° East 337 388 32,700 484 Climbing Denver Center
Fri 05:05:54 PM 39.6311 -101.9839 89° East 331 381 33,000 145 Climbing Denver Center
Fri 05:06:56 PM 39.6317 -101.8406 90° East 353 406 33,000  Level Denver Center
Fri 05:07:58 PM 39.6314 -101.7167 90° East 359 413 33,000  Level Denver Center
Fri 05:09:00 PM 39.6328 -101.5903 89° East 364 419 33,000  Level Denver Center
Fri 05:10:02 PM 39.6331 -101.4394 90° East 373 429 33,000  Level Denver Center
Fri 05:11:04 PM 39.6336 -101.3131 90° East 369 425 33,000 221 Level Denver Center
Fri 05:12:18 PM 39.6336 -101.1625 90° East 375 432 33,500 613 Climbing Denver Center
Fri 05:13:21 PM 39.6333 -101.0019 90° East 352 405 34,400 720 Climbing Denver Center
Fri 05:14:23 PM 39.6325 -100.8806 90° East 353 406 35,000 290 Climbing Denver Center
Fri 05:15:25 PM 39.6322 -100.7394 90° East 352 405 35,000  Level Denver Center
Fri 05:16:27 PM 39.6317 -100.6122 90° East 366 421 35,000  Level Denver Center
Fri 05:17:29 PM 39.6308 -100.4606 90° East 375 432 35,000  Level Denver Center
Fri 05:18:31 PM 39.6303 -100.3294 90° East 380 437 35,000  Level Denver Center
Fri 05:19:33 PM 39.6289 -100.1736 91° East 387 445 35,000  Level Denver Center
Fri 05:20:35 PM 39.6283 -100.0425 90° East 384 442 35,000  Level Denver Center
Fri 05:21:37 PM 39.6264 -99.8992 91° East 385 443 35,000  Level Denver Center
Fri 05:22:40 PM 39.6247 -99.7603 91° East 386 444 35,000  Level Denver Center
Fri 05:23:42 PM 39.6231 -99.6206 91° East 387 445 35,000  Level Denver Center
Fri 05:24:43 PM 39.6208 -99.5083 91° East 390 449 35,000  Level Denver Center
Fri 05:25:46 PM 39.6181 -99.3133 91° East 389 448 35,000  Level Denver Center
Fri 05:26:48 PM 39.6158 -99.1725 91° East 391 450 35,000  Level Denver Center
Fri 05:27:49 PM 39.6147 -99.0597 91° East 391 450 35,000  Level Denver Center
Fri 05:28:52 PM 39.6108 -98.8908 92° East 393 452 35,000  Level Denver Center
Fri 05:29:54 PM 39.6083 -98.7486 91° East 395 455 35,000  Level Denver Center
Fri 05:30:45 PM 39.6056 -98.6081 91° East 391 450 35,000  Level Kansas City Center
Fri 05:31:47 PM 39.6028 -98.4839 92° East 397 457 35,000  Level Kansas City Center
Fri 05:32:49 PM 39.5986 -98.3131 92° East 396 456 35,000  Level Kansas City Center
Fri 05:33:51 PM 39.5958 -98.1669 91° East 401 461 35,000  Level Kansas City Center
Fri 05:34:53 PM 39.5919 -98.0256 92° East 396 456 35,000  Level Kansas City Center
Fri 05:35:55 PM 39.5872 -97.8644 92° East 397 457 35,000  Level Kansas City Center
Fri 05:36:57 PM 39.5836 -97.7219 92° East 397 457 35,000  Level Kansas City Center
Fri 05:38:00 PM 39.5783 -97.5794 93° East 397 457 35,000  Level Kansas City Center
Fri 05:39:01 PM 39.5731 -97.4369 93° East 397 457 35,000  Level Kansas City Center
Fri 05:40:03 PM 39.5703 -97.2950 91° East 396 456 35,000  Level Kansas City Center
Fri 05:41:05 PM 39.5658 -97.1408 92° East 393 452 35,000  Level Kansas City Center
Fri 05:42:07 PM 39.5603 -96.9994 93° East 393 452 35,000  Level Kansas City Center
Fri 05:43:09 PM 39.5558 -96.8578 92° East 394 453 35,000  Level Kansas City Center
Fri 05:44:11 PM 39.5494 -96.7031 93° East 394 453 35,000  Level Kansas City Center
Fri 05:45:13 PM 39.5447 -96.5669 93° East 395 455 35,000  Level Kansas City Center
Fri 05:46:15 PM 39.5372 -96.4100 93° East 393 452 35,000  Level Kansas City Center
Fri 05:47:17 PM 39.5314 -96.2728 93° East 398 458 35,000  Level Kansas City Center
Fri 05:48:19 PM 39.5244 -96.1153 93° East 393 452 35,000  Level Kansas City Center
Fri 05:49:21 PM 39.5189 -95.9783 93° East 396 456 35,000  Level Kansas City Center
Fri 05:50:23 PM 39.5111 -95.8194 94° East 395 455 35,000  Level Kansas City Center
Fri 05:51:25 PM 39.5058 -95.6831 93° East 396 456 35,000  Level Kansas City Center
Fri 05:52:27 PM 39.4978 -95.5228 94° East 397 457 35,000  Level Kansas City Center
Fri 05:53:29 PM 39.4900 -95.3772 94° East 398 458 35,000  Level Kansas City Center
Fri 05:54:31 PM 39.4831 -95.2331 94° East 401 461 35,000  Level Kansas City Center
Fri 05:55:33 PM 39.4758 -95.0831 94° East 401 461 35,000  Level Kansas City Center
Fri 05:56:35 PM 39.4681 -94.9436 94° East 403 464 35,000  Level Kansas City Center
Fri 05:57:37 PM 39.4592 -94.7811 94° East 404 465 35,000  Level Kansas City Center
Fri 05:58:39 PM 39.4514 -94.6411 94° East 407 468 35,000  Level Kansas City Center
Fri 05:59:41 PM 39.4431 -94.5014 94° East 407 468 35,000  Level Kansas City Center
Fri 06:00:43 PM 39.4333 -94.3394 94° East 404 465 35,000  Level Kansas City Center
Fri 06:01:45 PM 39.4250 -94.2011 94° East 403 464 35,000  Level Kansas City Center
Fri 06:02:47 PM 39.4153 -94.0392 94° East 403 464 35,000  Level Kansas City Center
Fri 06:03:49 PM 39.4061 -93.9003 95° East 404 465 35,000  Level Kansas City Center
Fri 06:04:51 PM 39.3964 -93.7400 94° East 404 465 35,000  Level Kansas City Center
Fri 06:05:53 PM 39.3861 -93.6075 96° East 404 465 35,000  Level Kansas City Center
Fri 06:06:55 PM 39.3778 -93.4664 94° East 400 460 35,000  Level Kansas City Center
Fri 06:07:57 PM 39.3675 -93.2994 95° East 395 455 35,000  Level Kansas City Center
Fri 06:08:59 PM 39.3569 -93.1572 95° East 399 459 35,000  Level Kansas City Center
Fri 06:10:01 PM 39.3469 -93.0161 95° East 400 460 35,000  Level Kansas City Center
Fri 06:11:03 PM 39.3372 -92.8769 95° East 397 457 35,000  Level Kansas City Center
Fri 06:12:05 PM 39.3253 -92.7083 95° East 397 457 35,000  Level Kansas City Center
Fri 06:13:07 PM 39.3144 -92.5686 96° East 397 457 35,000  Level Kansas City Center
Fri 06:14:09 PM 39.3036 -92.4264 96° East 399 459 35,000  Level Kansas City Center
Fri 06:15:11 PM 39.2931 -92.2861 96° East 399 459 35,000  Level Kansas City Center
Fri 06:16:12 PM 39.2822 -92.1478 96° East 396 456 35,000  Level Kansas City Center
Fri 06:17:14 PM 39.2697 -91.9783 95° East 397 457 35,000  Level Kansas City Center
Fri 06:18:16 PM 39.2583 -91.8386 96° East 397 457 35,000  Level Kansas City Center
Fri 06:19:18 PM 39.2464 -91.7008 96° East 394 453 35,000  Level Kansas City Center
Fri 06:20:20 PM 39.2361 -91.5625 95° East 395 455 35,000  Level Kansas City Center
Fri 06:21:22 PM 39.2231 -91.4219 97° East 396 456 35,000  Level Kansas City Center
Fri 06:22:24 PM 39.2094 -91.2508 96° East 399 459 35,000  Level Kansas City Center
Fri 06:23:26 PM 39.1967 -91.1092 97° East 398 458 35,000  Level Kansas City Center
Fri 06:24:27 PM 39.1839 -90.9669 97° East 399 459 35,000  Level Kansas City Center
Fri 06:25:29 PM 39.1722 -90.8253 96° East 398 458 35,000  Level Kansas City Center
Fri 06:26:31 PM 39.1592 -90.6833 97° East 398 458 35,000  Level Kansas City Center
Fri 06:27:33 PM 39.1467 -90.5403 96° East 400 460 35,000  Level Kansas City Center
Fri 06:28:35 PM 39.1339 -90.3986 97° East 398 458 35,000  Level Kansas City Center
Fri 06:29:36 PM 39.1206 -90.2542 97° East 401 461 35,000  Level Kansas City Center
Fri 06:30:38 PM 39.1061 -90.1106 97° East 402 463 35,000  Level Kansas City Center
Fri 06:31:40 PM 39.0892 -89.9339 97° East 400 460 35,000  Level Kansas City Center
Fri 06:32:41 PM 39.0758 -89.7903 97° East 402 463 35,000  Level Kansas City Center
Fri 06:33:43 PM 39.0611 -89.6478 98° East 403 464 35,000 -290 Level Kansas City Center
Fri 06:34:45 PM 39.0450 -89.4939 98° East 403 464 34,400 -919 Descending Kansas City Center
Fri 06:35:47 PM 39.0306 -89.3425 97° East 422 486 33,100 -677 Descending Kansas City Center
Fri 06:36:49 PM 39.0336 -89.1881 88° East 432 497 33,000 -48 Descending Kansas City Center
Fri 06:37:51 PM 39.0356 -89.0283 89° East 417 480 33,000  Level Kansas City Center
Fri 06:38:52 PM 39.0406 -88.8778 88° East 410 472 33,000  Level Kansas City Center
Fri 06:39:54 PM 39.0442 -88.7375 88° East 406 467 33,000  Level Kansas City Center
Fri 06:40:56 PM 39.0442 -88.5872 90° East 406 467 33,000 -387 Level Kansas City Center
Fri 06:41:58 PM 39.0444 -88.4411 90° East 407 468 32,200 -878 Descending Kansas City Center
Fri 06:42:59 PM 39.0417 -88.2867 91° East 425 489 31,200 -585 Descending Kansas City Center
Fri 06:44:01 PM 39.0203 -88.1389 101° East 422 486 31,000 -97 Descending Kansas City Center
Fri 06:45:03 PM 39.0022 -87.9925 99° East 415 478 31,000 -242 Level Kansas City Center
Fri 06:46:05 PM 38.9853 -87.8514 99° East 404 465 30,500 -484 Descending Kansas City Center
Fri 06:47:07 PM 38.9681 -87.7114 99° East 397 457 30,000 -244 Descending Kansas City Center
Fri 06:48:08 PM 38.9475 -87.5483 99° East 387 445 30,000  Level Kansas City Center
Fri 06:49:25 PM 38.9258 -87.3900 100° East 378 435 30,000 -734 Level Indianapolis Center
Fri 06:50:27 PM 38.9083 -87.2531 99° East 383 441 28,300 -1,742 Descending Indianapolis Center
Fri 06:51:29 PM 38.8897 -87.1042 99° East 409 471 26,400 -1,790 Descending Indianapolis Center
Fri 06:52:31 PM 38.8711 -86.9592 99° East 410 472 24,600 -1,452 Descending Indianapolis Center
Fri 06:53:33 PM 38.8536 -86.8208 99° East 397 457 23,400 -774 Descending Indianapolis Center
Fri 06:54:35 PM 38.8367 -86.6897 99° East 377 434 23,000 -195 Descending Indianapolis Center
Fri 06:55:36 PM 38.8194 -86.5617 100° East 366 421 23,000  Level Indianapolis Center
Fri 06:56:38 PM 38.7989 -86.4103 100° East 358 412 23,000  Level Indianapolis Center
Fri 06:57:40 PM 38.7822 -86.2864 100° East 352 405 23,000 -145 Level Indianapolis Center
Fri 06:58:42 PM 38.7658 -86.1611 99° East 355 409 22,700 -871 Descending Indianapolis Center
Fri 06:59:44 PM 38.7475 -86.0339 100° East 360 414 21,200 -1,984 Descending Indianapolis Center
Fri 07:00:46 PM 38.7306 -85.9086 100° East 358 412 18,600 -2,419 Descending Indianapolis Center
Fri 07:01:48 PM 38.7125 -85.7808 100° East 332 382 16,200 -2,032 Descending Indianapolis Center
Fri 07:02:50 PM 38.6967 -85.6628 100° East 335 386 14,400 -1,694 Descending Indianapolis Center
Fri 07:03:52 PM 38.6800 -85.5486 101° East 330 380 12,700 -1,122 Descending Indianapolis Center
Fri 07:04:53 PM 38.6800 -85.4408 90° East 312 359 12,100 -293 Descending Indianapolis Center
Fri 07:05:55 PM 38.7053 -85.3378 73° East 317 365 12,100 -435 Level Indianapolis Center
Fri 07:06:57 PM 38.7106 -85.2275 86° East 314 361 11,200 -1,113 Descending Indianapolis Center
Fri 07:07:59 PM 38.7167 -85.1011 86° East 299 344 9,800 -1,016 Descending Indianapolis Center
Fri 07:09:01 PM 38.7222 -84.9992 86° East 291 335 9,100 -581 Descending Indianapolis Center
Fri 07:10:03 PM 38.7269 -84.8989 87° East 285 328 8,600 -823 Descending Indianapolis Center
Fri 07:11:05 PM 38.7325 -84.8017 86° East 276 318 7,400 -732 Descending Indianapolis Center
Fri 07:12:06 PM 38.7369 -84.7036 87° East 279 321 7,100 -585 Descending Indianapolis Center
Fri 07:13:08 PM 38.7378 -84.6022 89° East 271 312 6,200 -871 Descending Indianapolis Center
Fri 07:14:10 PM 38.7600 -84.5019 74° East 262 302 5,300 -871 Descending Indianapolis Center
Fri 07:15:12 PM 38.7958 -84.4186 61° Northeast 262 302 4,400 -968 Descending Indianapolis Center
Fri 07:16:14 PM 38.8464 -84.4042 13° North 253 291 3,300 -713 Descending Indianapolis Center
Fri 07:17:52 PM 38.9333 -84.4000 North 170 196 2,500 -266 Descending Cincinnati TRACON
Fri 07:18:52 PM 39.0000 -84.4167 349° North 176 203 2,600 -200 Climbing Cincinnati TRACON
Fri 07:19:52 PM 39.0333 -84.4167 360° North 111 128 2,100 -650 Descending Cincinnati TRACON
Fri 07:20:52 PM 39.0667 -84.4333 339° North 108 124 1,300 -800 Descending Cincinnati TRACON

Login

Don't have an account? Register now (free) for customized features, flight alerts, and more!